Time;durP1;ratioP1;P1;durP2;ratioP2;P2;SDS_P1;SDS_P2;PMS_P1;PMS_P2;Temp;Humidity;BMP_temperature;BMP_pressure;BME280_temperature;BME280_humidity;BME280_pressure;Samples;Min_cycle;Max_cycle;Signal;HPM_P1;HPM_P2
2021/10/04 00:01:35;;;;;;;18.90;9.83;;;;;;;9.09;53.44;101541.91;4983270;28;20055;-76
2021/10/04 00:04:02;;;;;;;19.60;9.30;;;;;;;9.06;54.11;101539.94;5000633;28;20058;-75
2021/10/04 00:06:29;;;;;;;25.00;10.13;;;;;;;9.02;54.23;101541.84;4986819;28;20077;-75
2021/10/04 00:08:56;;;;;;;18.37;9.33;;;;;;;8.95;54.15;101541.00;4986789;28;20130;-75
2021/10/04 00:11:23;;;;;;;18.43;9.20;;;;;;;8.94;54.53;101542.16;4986506;28;20130;-75
2021/10/04 00:13:50;;;;;;;19.70;8.43;;;;;;;8.90;54.54;101542.13;4988177;28;20046;-75
2021/10/04 00:16:17;;;;;;;20.07;10.13;;;;;;;8.87;54.11;101545.56;5003213;28;20038;-75
2021/10/04 00:18:44;;;;;;;16.67;9.10;;;;;;;8.82;54.76;101545.91;4991658;28;20089;-75
2021/10/04 00:21:11;;;;;;;19.53;9.97;;;;;;;8.82;54.58;101548.59;4988196;28;20049;-75
2021/10/04 00:23:38;;;;;;;19.63;9.10;;;;;;;8.80;54.76;101540.06;4988648;28;20530;-75
2021/10/04 00:26:05;;;;;;;20.43;8.63;;;;;;;8.79;54.79;101533.09;4987606;28;20053;-75
2021/10/04 00:28:32;;;;;;;21.23;9.70;;;;;;;8.75;54.51;101537.69;4988439;28;20082;-76
2021/10/04 00:30:59;;;;;;;21.27;9.07;;;;;;;8.73;54.89;101540.78;4991951;28;20490;-74
2021/10/04 00:33:26;;;;;;;18.13;9.10;;;;;;;8.71;54.77;101534.97;4989693;28;20403;-74
2021/10/04 00:35:52;;;;;;;18.53;9.23;;;;;;;8.70;55.29;101535.34;4985400;28;20100;-74
2021/10/04 00:38:19;;;;;;;19.73;9.53;;;;;;;8.68;55.03;101530.28;5006904;28;20050;-75
2021/10/04 00:40:46;;;;;;;20.30;8.40;;;;;;;8.65;55.50;101538.38;4980468;28;20092;-75
2021/10/04 00:43:13;;;;;;;17.23;7.93;;;;;;;8.62;55.35;101537.19;5000543;28;20161;-76
2021/10/04 00:45:40;;;;;;;19.27;8.87;;;;;;;8.60;55.34;101525.16;4983653;28;20138;-74
2021/10/04 00:48:07;;;;;;;17.97;9.27;;;;;;;8.55;55.67;101535.16;4979937;28;20090;-74
2021/10/04 00:50:34;;;;;;;16.30;8.70;;;;;;;8.51;55.12;101526.22;4985211;28;20078;-75
2021/10/04 00:53:01;;;;;;;21.60;9.37;;;;;;;8.46;55.35;101525.78;4984291;28;20542;-74
2021/10/04 00:55:28;;;;;;;17.67;8.87;;;;;;;8.45;55.57;101535.84;4988222;28;20134;-75
2021/10/04 00:57:56;;;;;;;14.27;7.77;;;;;;;8.42;55.82;101533.84;4996211;28;20141;-75
2021/10/04 01:00:26;;;;;;;16.50;7.60;;;;;;;8.38;56.41;101535.75;4992508;28;20141;-75
2021/10/04 01:02:53;;;;;;;16.37;7.53;;;;;;;8.38;56.06;101537.66;4987174;28;20144;-74
2021/10/04 01:05:20;;;;;;;15.00;7.70;;;;;;;8.33;56.18;101533.34;4984747;28;20050;-75
2021/10/04 01:07:47;;;;;;;15.37;8.23;;;;;;;8.29;55.78;101532.50;4989867;28;20074;-75
2021/10/04 01:10:14;;;;;;;13.50;8.00;;;;;;;8.25;56.07;101530.91;4987437;28;20588;-75
2021/10/04 01:12:45;;;;;;;13.43;7.73;;;;;;;8.22;56.44;101535.13;4990585;28;20125;-76
2021/10/04 01:15:14;;;;;;;17.27;9.00;;;;;;;8.17;56.84;101535.44;4989714;28;20042;-75
2021/10/04 01:17:41;;;;;;;16.83;7.67;;;;;;;8.15;56.72;101532.31;4989973;28;20073;-75
2021/10/04 01:20:09;;;;;;;14.00;7.73;;;;;;;8.08;57.36;101532.22;5012525;28;20133;-75
2021/10/04 01:22:36;;;;;;;15.57;8.30;;;;;;;8.07;56.68;101534.16;4984170;28;20129;-76
2021/10/04 01:25:04;;;;;;;16.20;7.67;;;;;;;8.04;56.98;101537.56;4978563;28;20535;-76
2021/10/04 01:27:31;;;;;;;15.93;9.33;;;;;;;8.01;57.33;101540.25;4980435;28;20517;-76
2021/10/04 01:29:58;;;;;;;15.37;7.40;;;;;;;7.98;57.43;101538.28;4988023;28;20672;-76
2021/10/04 01:32:25;;;;;;;12.20;7.43;;;;;;;7.96;57.03;101540.56;4992159;28;20132;-75
2021/10/04 01:34:55;;;;;;;14.77;7.57;;;;;;;7.97;58.18;101534.00;4988801;28;20138;-75
2021/10/04 01:37:24;;;;;;;12.13;7.20;;;;;;;7.97;57.92;101536.72;4999872;28;20142;-76
2021/10/04 01:39:51;;;;;;;15.87;7.20;;;;;;;7.98;58.38;101535.56;4993148;28;20093;-74
2021/10/04 01:42:19;;;;;;;13.80;7.63;;;;;;;7.94;58.13;101537.44;4974633;28;20549;-76
2021/10/04 01:44:46;;;;;;;18.30;8.00;;;;;;;7.90;58.05;101531.22;4982902;28;20518;-76
2021/10/04 01:47:13;;;;;;;14.77;7.33;;;;;;;7.85;57.63;101541.19;4990009;28;20957;-76
2021/10/04 01:49:43;;;;;;;13.63;6.93;;;;;;;7.82;57.48;101541.91;4993649;28;20586;-75
2021/10/04 01:52:12;;;;;;;10.50;6.97;;;;;;;7.80;57.97;101529.91;4994952;28;20054;-75
2021/10/04 01:54:40;;;;;;;18.07;7.60;;;;;;;7.80;58.47;101533.38;4982085;28;20105;-76
2021/10/04 01:57:07;;;;;;;12.93;7.53;;;;;;;7.81;58.11;101524.13;4991365;28;20097;-75
2021/10/04 01:59:34;;;;;;;13.67;7.73;;;;;;;7.82;58.69;101525.69;4987660;28;20089;-75
2021/10/04 02:02:01;;;;;;;12.60;7.30;;;;;;;7.81;58.02;101529.53;4985383;28;20098;-75
2021/10/04 02:04:28;;;;;;;13.20;7.37;;;;;;;7.81;58.31;101539.56;4992939;28;20058;-76
2021/10/04 02:06:55;;;;;;;13.63;7.97;;;;;;;7.84;58.19;101544.25;4984267;28;20051;-77
2021/10/04 02:09:22;;;;;;;13.30;7.33;;;;;;;7.87;58.30;101538.13;4978348;28;20078;-75
2021/10/04 02:11:48;;;;;;;14.30;7.97;;;;;;;7.92;58.14;101534.31;4994950;28;20105;-75
2021/10/04 02:14:16;;;;;;;13.70;7.23;;;;;;;7.94;58.35;101537.44;4987293;28;20089;-75
2021/10/04 02:16:43;;;;;;;13.93;7.40;;;;;;;7.90;57.92;101536.63;4990236;28;20113;-75
2021/10/04 02:19:11;;;;;;;19.00;8.13;;;;;;;7.90;57.61;101544.72;5006741;28;20065;-76
2021/10/04 02:21:38;;;;;;;15.17;7.50;;;;;;;7.87;58.41;101538.91;5005597;28;20141;-75
2021/10/04 02:24:05;;;;;;;13.83;7.83;;;;;;;7.87;57.78;101538.91;4990292;28;20485;-76
2021/10/04 02:26:32;;;;;;;16.50;8.73;;;;;;;7.87;57.88;101532.72;4992397;28;20042;-75
2021/10/04 02:28:58;;;;;;;19.70;7.97;;;;;;;7.87;57.52;101535.41;4990790;28;20078;-74
2021/10/04 02:31:25;;;;;;;15.20;8.03;;;;;;;7.91;58.07;101538.19;4984454;28;20090;-76
2021/10/04 02:33:52;;;;;;;15.87;8.03;;;;;;;7.91;57.93;101543.59;4973596;28;20062;-75
2021/10/04 02:36:23;;;;;;;15.93;8.43;;;;;;;7.90;58.02;101542.03;4991462;28;20074;-76
2021/10/04 02:38:52;;;;;;;13.17;7.60;;;;;;;7.94;58.88;101553.69;4999838;28;20149;-75
2021/10/04 02:41:19;;;;;;;15.50;8.37;;;;;;;7.93;58.91;101544.78;4987886;28;20105;-75
2021/10/04 02:43:46;;;;;;;16.73;8.30;;;;;;;7.97;58.67;101552.94;4986190;28;20085;-74
2021/10/04 02:46:13;;;;;;;17.30;8.00;;;;;;;7.95;58.21;101552.53;4986807;28;20989;-74
2021/10/04 02:48:41;;;;;;;17.70;7.33;;;;;;;7.93;58.64;101547.47;4988529;28;20117;-74
2021/10/04 02:51:08;;;;;;;14.37;8.37;;;;;;;7.92;58.19;101550.56;5005441;28;20096;-75
2021/10/04 02:53:35;;;;;;;17.60;8.73;;;;;;;7.91;58.02;101555.19;4998536;28;20134;-75
2021/10/04 02:56:02;;;;;;;16.97;9.10;;;;;;;7.92;58.06;101545.16;4989603;28;20058;-75
2021/10/04 02:58:29;;;;;;;16.50;8.03;;;;;;;7.92;58.23;101547.84;4995638;28;20844;-76
2021/10/04 03:00:56;;;;;;;18.70;8.13;;;;;;;7.89;57.94;101552.06;5001049;28;20121;-76
2021/10/04 03:03:23;;;;;;;21.63;9.37;;;;;;;7.88;58.45;101551.28;5006038;28;20058;-75
2021/10/04 03:05:50;;;;;;;19.00;9.00;;;;;;;7.91;58.43;101554.41;4986756;28;20429;-76
2021/10/04 03:08:17;;;;;;;21.67;9.33;;;;;;;7.87;58.47;101555.13;4999791;28;20129;-75
2021/10/04 03:10:43;;;;;;;21.97;9.37;;;;;;;7.92;58.11;101555.97;4990077;28;20062;-76
2021/10/04 03:13:10;;;;;;;16.63;9.70;;;;;;;7.94;58.52;101553.69;4982691;28;20141;-75
2021/10/04 03:15:37;;;;;;;16.87;8.93;;;;;;;7.93;58.96;101552.13;4987951;28;20717;-75
2021/10/04 03:18:04;;;;;;;22.13;10.00;;;;;;;7.92;59.01;101555.97;4984374;28;20541;-75
2021/10/04 03:20:32;;;;;;;19.33;9.00;;;;;;;7.87;58.72;101555.13;4983125;28;20138;-76
2021/10/04 03:22:59;;;;;;;12.67;7.63;;;;;;;7.83;58.88;101565.09;5004334;28;20137;-76
2021/10/04 03:25:26;;;;;;;19.07;9.23;;;;;;;7.80;59.66;101568.53;4987511;28;20157;-76
2021/10/04 03:27:53;;;;;;;15.53;8.53;;;;;;;7.77;58.93;101558.47;4976883;28;20054;-76
2021/10/04 03:30:20;;;;;;;15.70;8.53;;;;;;;7.79;59.23;101563.50;4976761;28;20101;-76
2021/10/04 03:32:48;;;;;;;16.50;8.57;;;;;;;7.79;58.98;101566.22;4986792;28;20050;-75
2021/10/04 03:35:16;;;;;;;19.30;9.40;;;;;;;7.78;59.14;101557.31;4983752;28;20047;-76
2021/10/04 03:37:43;;;;;;;20.07;8.30;;;;;;;7.77;59.10;101565.78;4985671;28;20074;-76
2021/10/04 03:40:11;;;;;;;20.03;9.17;;;;;;;7.77;59.35;101568.50;4988697;28;20057;-76
2021/10/04 03:42:39;;;;;;;19.70;8.23;;;;;;;7.76;59.59;101565.00;4990563;28;20133;-75
2021/10/04 03:45:07;;;;;;;23.87;9.13;;;;;;;7.80;59.22;101571.22;4987205;28;20486;-76
2021/10/04 03:47:35;;;;;;;17.13;8.70;;;;;;;7.85;58.57;101572.84;4997609;28;20137;-76
2021/10/04 03:50:07;;;;;;;14.30;8.10;;;;;;;7.87;58.27;101573.25;4981802;28;20058;-75
2021/10/04 03:52:35;;;;;;;16.73;8.77;;;;;;;7.90;58.24;101580.66;4983143;28;20054;-76
2021/10/04 03:55:04;;;;;;;27.03;11.97;;;;;;;7.95;58.97;101574.16;4991120;28;20146;-75
2021/10/04 03:57:30;;;;;;;21.30;8.90;;;;;;;7.99;58.39;101577.69;4994737;28;20358;-75
2021/10/04 03:59:57;;;;;;;18.47;8.90;;;;;;;7.99;58.58;101575.00;4994923;28;20454;-76
2021/10/04 04:02:24;;;;;;;19.40;8.30;;;;;;;8.02;58.21;101577.75;4985818;28;20113;-76
2021/10/04 04:04:51;;;;;;;21.97;9.10;;;;;;;8.03;57.80;101573.88;4989103;28;20058;-75
2021/10/04 04:07:18;;;;;;;17.40;8.70;;;;;;;8.06;57.78;101583.19;5010540;28;20546;-74
2021/10/04 04:09:45;;;;;;;17.63;6.87;;;;;;;8.04;57.92;101577.38;4997141;28;20073;-76
2021/10/04 04:12:12;;;;;;;17.43;8.53;;;;;;;8.05;57.74;101584.34;4993191;28;20138;-76
2021/10/04 04:14:38;;;;;;;14.57;7.30;;;;;;;8.08;57.35;101586.31;4989048;28;20134;-76
2021/10/04 04:17:05;;;;;;;17.47;7.87;;;;;;;8.07;57.12;101585.53;4989915;28;20547;-75
2021/10/04 04:19:32;;;;;;;17.77;8.70;;;;;;;8.11;57.56;101585.59;4991689;28;20126;-75
2021/10/04 04:21:59;;;;;;;23.93;8.50;;;;;;;8.09;57.15;101577.06;4983012;28;20781;-76
2021/10/04 04:24:25;;;;;;;15.90;7.03;;;;;;;8.11;57.44;101574.78;4987309;28;20694;-75
2021/10/04 04:26:53;;;;;;;23.10;8.67;;;;;;;8.14;57.15;101579.44;4992742;28;20085;-75
2021/10/04 04:29:22;;;;;;;17.43;7.90;;;;;;;8.23;57.55;101582.69;4993244;28;20157;-75
2021/10/04 04:31:50;;;;;;;21.53;8.63;;;;;;;8.27;57.45;101582.72;4996352;28;20061;-75
2021/10/04 04:34:17;;;;;;;16.30;8.60;;;;;;;8.34;57.34;101582.84;4989016;28;20065;-75
2021/10/04 04:36:44;;;;;;;16.87;7.70;;;;;;;8.40;57.41;101592.97;4990388;28;20129;-75
2021/10/04 04:39:11;;;;;;;18.57;8.93;;;;;;;8.47;56.88;101582.25;4991055;28;20719;-75
2021/10/04 04:41:38;;;;;;;18.10;8.90;;;;;;;8.62;56.70;101577.00;4991536;28;20063;-75
2021/10/04 04:44:05;;;;;;;14.27;8.73;;;;;;;8.70;56.63;101578.66;4991143;28;20070;-75
2021/10/04 04:46:32;;;;;;;13.33;7.50;;;;;;;8.76;56.29;101572.50;4991451;28;20101;-74
2021/10/04 04:48:59;;;;;;;15.97;8.07;;;;;;;8.85;55.61;101585.78;4990459;28;20078;-74
2021/10/04 04:51:26;;;;;;;15.50;7.70;;;;;;;8.91;55.58;101578.88;4987007;28;20082;-75
2021/10/04 04:53:53;;;;;;;18.13;9.17;;;;;;;8.98;55.38;101587.06;4988728;28;20148;-75
2021/10/04 04:56:19;;;;;;;17.43;8.23;;;;;;;9.06;55.59;101577.88;4985368;28;20085;-75
2021/10/04 04:58:46;;;;;;;56.73;25.43;;;;;;;9.13;55.70;101580.66;4988277;28;20073;-75
2021/10/04 05:01:13;;;;;;;24.77;13.63;;;;;;;9.20;54.61;101575.31;4986694;28;20073;-75
2021/10/04 05:03:40;;;;;;;21.00;10.70;;;;;;;9.27;54.81;101574.59;5004600;28;20149;-75
2021/10/04 05:06:08;;;;;;;20.20;9.67;;;;;;;9.38;54.50;101571.97;4993968;28;20061;-75
2021/10/04 05:08:34;;;;;;;19.17;8.73;;;;;;;9.49;54.60;101570.13;4994288;28;20449;-74
2021/10/04 05:11:01;;;;;;;17.83;9.00;;;;;;;9.62;54.04;101571.41;4988849;28;20486;-74
2021/10/04 05:13:28;;;;;;;25.43;10.77;;;;;;;9.74;53.74;101567.59;4991202;28;20078;-73
2021/10/04 05:15:55;;;;;;;30.60;10.83;;;;;;;9.87;53.48;101572.38;5005261;28;20074;-74
2021/10/04 05:18:22;;;;;;;24.47;10.10;;;;;;;10.10;53.28;101571.34;4991121;28;20057;-74
2021/10/04 05:20:49;;;;;;;29.80;11.83;;;;;;;10.27;52.54;101570.69;4985279;28;20483;-74
2021/10/04 05:23:16;;;;;;;27.73;10.57;;;;;;;10.45;51.97;101576.97;4988560;28;20074;-75
2021/10/04 05:25:43;;;;;;;33.50;11.13;;;;;;;10.55;51.55;101584.38;4997170;28;20054;-76
2021/10/04 05:28:10;;;;;;;39.30;10.67;;;;;;;10.73;51.62;101587.16;4986469;28;20550;-73
2021/10/04 05:30:38;;;;;;;22.30;10.07;;;;;;;10.87;50.91;101581.75;4987154;28;20050;-76
2021/10/04 05:33:05;;;;;;;25.00;11.07;;;;;;;11.09;50.37;101582.59;4989647;28;20054;-74
2021/10/04 05:35:31;;;;;;;33.10;11.13;;;;;;;11.31;50.42;101583.41;4990701;28;20510;-74
2021/10/04 05:37:58;;;;;;;30.47;12.13;;;;;;;11.52;50.41;101585.34;4984154;28;20240;-75
2021/10/04 05:40:25;;;;;;;36.00;12.07;;;;;;;11.81;49.63;101586.91;4987312;28;20046;-77
2021/10/04 05:42:52;;;;;;;26.70;12.03;;;;;;;12.03;48.79;101589.63;4986155;28;20480;-76
2021/10/04 05:45:20;;;;;;;28.40;12.30;;;;;;;12.32;48.42;101591.06;5018475;28;20074;-77
2021/10/04 05:47:47;;;;;;;26.20;11.93;;;;;;;12.56;47.58;101605.78;4988794;28;20074;-76
2021/10/04 05:50:15;;;;;;;29.03;12.70;;;;;;;12.86;46.49;101599.81;4992595;28;20141;-78
2021/10/04 05:52:42;;;;;;;34.10;13.47;;;;;;;13.10;46.00;101590.72;4988888;28;20089;-74
2021/10/04 05:55:09;;;;;;;31.07;13.77;;;;;;;13.33;46.32;101590.19;4999984;28;20074;-76
2021/10/04 05:57:37;;;;;;;27.50;12.57;;;;;;;13.57;45.35;101596.63;4995423;28;20546;-75
2021/10/04 06:00:06;;;;;;;38.50;14.30;;;;;;;13.76;44.80;101587.88;4986582;28;20081;-77
2021/10/04 06:02:33;;;;;;;33.30;13.80;;;;;;;14.06;44.54;101594.63;4987752;28;20050;-76
2021/10/04 06:05:00;;;;;;;39.10;14.03;;;;;;;14.27;43.80;101589.69;4987476;28;20050;-75
2021/10/04 06:07:27;;;;;;;20.57;10.60;;;;;;;14.58;42.47;101593.28;5005341;28;20074;-75
2021/10/04 06:09:53;;;;;;;25.20;9.27;;;;;;;14.97;41.09;101591.97;4986667;28;20073;-76
2021/10/04 06:12:26;;;;;;;19.37;8.90;;;;;;;14.94;38.87;101587.31;4992430;28;20050;-76
2021/10/04 06:14:58;;;;;;;18.83;8.65;;;;;;;15.07;38.42;101596.53;4989462;28;20055;-76
2021/10/04 06:17:26;;;;;;;25.77;10.30;;;;;;;15.41;39.79;101598.34;4991304;28;20133;-74
2021/10/04 06:19:54;;;;;;;26.87;10.90;;;;;;;15.64;39.62;101596.44;5002554;28;20101;-75
2021/10/04 06:22:22;;;;;;;22.97;9.53;;;;;;;15.84;38.79;101593.72;4986770;28;20074;-74
2021/10/04 06:24:49;;;;;;;14.60;7.10;;;;;;;16.20;38.01;101595.84;4991142;28;20080;-74
2021/10/04 06:27:16;;;;;;;16.63;6.70;;;;;;;16.49;36.59;101594.09;4988008;28;20101;-75
2021/10/04 06:29:43;;;;;;;16.37;6.67;;;;;;;16.58;37.26;101593.50;4982650;28;20117;-75
2021/10/04 06:32:10;;;;;;;17.85;6.68;;;;;;;16.80;36.72;101593.84;4988080;28;20081;-77
2021/10/04 06:34:37;;;;;;;19.15;6.30;;;;;;;16.91;36.08;101592.44;4986873;28;20443;-77
2021/10/04 06:37:04;;;;;;;20.92;6.13;;;;;;;17.13;35.07;101587.22;4990091;28;20165;-75
2021/10/04 06:39:31;;;;;;;12.63;5.53;;;;;;;17.27;35.67;101600.59;4981708;28;20133;-75
2021/10/04 06:41:57;;;;;;;14.20;5.65;;;;;;;17.44;34.96;101595.13;4990189;28;20194;-76
2021/10/04 06:44:24;;;;;;;9.65;5.03;;;;;;;17.62;34.51;101590.75;4990955;28;20109;-75
2021/10/04 06:46:59;;;;;;;12.60;5.32;;;;;;;17.80;33.99;101587.56;4989316;28;20134;-76
2021/10/04 06:49:31;;;;;;;14.65;5.13;;;;;;;17.80;33.57;101589.53;5001873;28;20050;-76
2021/10/04 06:51:59;;;;;;;16.13;5.43;;;;;;;17.96;32.97;101590.25;4974007;28;20132;-76
2021/10/04 06:54:26;;;;;;;8.52;4.55;;;;;;;18.24;33.71;101591.47;4982730;28;20137;-76
2021/10/04 06:56:52;;;;;;;7.22;4.40;;;;;;;18.49;32.31;101593.50;4994902;28;20142;-77
2021/10/04 06:59:19;;;;;;;15.68;5.93;;;;;;;18.53;32.76;101585.94;4991362;28;20129;-76
2021/10/04 07:01:46;;;;;;;13.63;4.25;;;;;;;18.58;32.88;101592.88;4988036;28;20060;-76
2021/10/04 07:04:13;;;;;;;14.38;5.18;;;;;;;18.45;32.67;101594.81;4992597;28;20061;-75
2021/10/04 07:06:40;;;;;;;10.63;5.60;;;;;;;18.60;32.26;101585.78;4990967;28;20089;-75
2021/10/04 07:09:07;;;;;;;10.50;5.00;;;;;;;18.64;31.09;101578.19;4991516;28;20581;-76
2021/10/04 07:11:34;;;;;;;8.63;4.65;;;;;;;18.82;31.41;101585.13;4992051;28;20061;-75
2021/10/04 07:14:01;;;;;;;11.73;5.97;;;;;;;18.92;31.65;101590.28;4983288;28;20474;-76
2021/10/04 07:16:28;;;;;;;9.90;5.40;;;;;;;19.12;30.87;101581.84;4992201;28;20144;-75
2021/10/04 07:18:55;;;;;;;17.10;6.05;;;;;;;19.34;30.91;101585.44;4990334;28;20128;-77
2021/10/04 07:21:22;;;;;;;11.50;5.72;;;;;;;19.72;30.56;101587.34;4990201;28;20142;-77
2021/10/04 07:23:48;;;;;;;13.45;5.57;;;;;;;19.92;30.12;101587.84;4990351;28;20053;-76
2021/10/04 07:26:15;;;;;;;11.75;5.43;;;;;;;20.13;29.89;101583.56;4990311;28;20137;-76
2021/10/04 07:28:42;;;;;;;9.63;5.22;;;;;;;20.30;30.08;101590.44;4992710;28;20854;-77
2021/10/04 07:31:10;;;;;;;8.98;4.40;;;;;;;20.29;30.00;101588.13;4987995;28;20049;-75
2021/10/04 07:33:37;;;;;;;12.98;4.95;;;;;;;20.28;29.79;101592.09;4989816;28;20050;-76
2021/10/04 07:36:06;;;;;;;13.75;5.38;;;;;;;20.07;29.86;101599.16;4997722;28;20140;-78
2021/10/04 07:38:37;;;;;;;13.82;5.35;;;;;;;19.45;29.41;101603.59;4984274;28;21077;-76
2021/10/04 07:41:06;;;;;;;11.82;5.70;;;;;;;19.01;30.09;101603.41;4983622;28;20204;-76
2021/10/04 07:43:34;;;;;;;17.65;5.18;;;;;;;18.84;31.10;101594.50;4991443;28;20054;-77
2021/10/04 07:46:04;;;;;;;12.07;4.70;;;;;;;18.64;31.01;101602.94;4989751;28;20137;-75
2021/10/04 07:48:32;;;;;;;11.40;4.13;;;;;;;18.36;31.36;101610.00;5009893;28;20117;-75
2021/10/04 07:50:59;;;;;;;14.30;4.68;;;;;;;18.20;32.12;101609.25;4994956;28;20050;-79
2021/10/04 07:53:27;;;;;;;8.45;5.28;;;;;;;18.18;31.56;101606.19;4995081;28;20049;-78
2021/10/04 07:55:54;;;;;;;8.60;5.28;;;;;;;18.20;31.80;101606.50;4997178;28;20477;-79
2021/10/04 07:58:21;;;;;;;17.70;6.28;;;;;;;18.23;31.84;101609.16;4981554;28;20535;-79
2021/10/04 08:00:48;;;;;;;24.27;8.98;;;;;;;18.29;31.06;101609.41;5013586;28;20046;-79
2021/10/04 08:03:15;;;;;;;14.63;6.38;;;;;;;18.10;31.45;101607.59;5014640;28;20120;-78
2021/10/04 08:05:42;;;;;;;14.00;7.00;;;;;;;17.95;32.31;101609.94;4995896;28;20050;-79
2021/10/04 08:08:09;;;;;;;20.70;8.77;;;;;;;17.76;32.93;101611.59;4998249;28;20116;-78
2021/10/04 08:10:35;;;;;;;24.83;10.13;;;;;;;17.65;33.06;101616.59;4998028;28;20050;-78
2021/10/04 08:13:05;;;;;;;25.75;10.43;;;;;;;17.55;33.03;101612.09;4999925;28;20082;-79
2021/10/04 08:15:32;;;;;;;27.77;8.68;;;;;;;17.50;33.17;101615.34;5013149;28;20417;-80
2021/10/04 08:17:59;;;;;;;26.25;8.98;;;;;;;17.54;33.44;101616.03;4984551;28;20138;-79
2021/10/04 08:20:26;;;;;;;22.20;7.93;;;;;;;17.64;33.19;101607.59;4988216;28;20092;-78
2021/10/04 08:22:53;;;;;;;19.92;7.53;;;;;;;17.72;33.04;101610.91;4985314;28;20612;-80
2021/10/04 08:25:21;;;;;;;24.38;6.85;;;;;;;17.82;32.87;101598.88;4997484;28;20089;-81
2021/10/04 08:27:49;;;;;;;16.33;6.70;;;;;;;17.95;31.94;101613.44;4994276;28;20071;-79
2021/10/04 08:30:16;;;;;;;13.52;5.40;;;;;;;18.01;32.15;101606.22;5006998;28;20056;-76
2021/10/04 08:32:45;;;;;;;20.75;7.95;;;;;;;18.26;30.63;101605.56;5000106;28;20430;-76
2021/10/04 08:35:12;;;;;;;12.30;5.68;;;;;;;18.46;30.88;101612.88;4992307;28;20109;-75
2021/10/04 08:37:39;;;;;;;11.43;4.47;;;;;;;18.20;31.19;101612.00;4999216;28;20046;-75
2021/10/04 08:40:10;;;;;;;6.60;4.25;;;;;;;17.91;30.48;101612.03;4993819;28;20411;-76
2021/10/04 08:42:38;;;;;;;6.63;4.07;;;;;;;17.70;30.98;101607.84;4991042;28;20077;-75
2021/10/04 08:45:06;;;;;;;8.57;4.97;;;;;;;17.54;30.64;101605.06;4993111;28;20085;-76
2021/10/04 08:47:37;;;;;;;8.18;4.40;;;;;;;17.59;31.02;101601.81;4993347;28;20145;-75
2021/10/04 08:50:13;;;;;;;8.88;4.43;;;;;;;17.76;30.47;101611.59;4991196;28;20089;-75
2021/10/04 08:52:41;;;;;;;8.57;3.70;;;;;;;18.69;30.22;101594.13;4993259;28;20058;-76
2021/10/04 08:55:09;;;;;;;8.57;4.55;;;;;;;19.02;28.19;101583.69;4989461;28;20082;-77
2021/10/04 08:57:36;;;;;;;10.10;4.68;;;;;;;19.65;27.50;101590.34;4992919;28;20125;-76
2021/10/04 09:00:06;;;;;;;14.80;4.07;;;;;;;20.04;26.75;101589.78;4993104;28;20066;-75
2021/10/04 09:02:33;;;;;;;9.40;4.38;;;;;;;20.13;26.78;101588.28;4990046;28;20086;-73
2021/10/04 09:05:25;;;;;;;8.05;4.03;;;;;;;20.38;25.61;101585.44;5004518;28;21005;-76
2021/10/04 09:08:12;;;;;;;5.82;3.70;;;;;;;20.63;25.92;101590.78;5000434;28;20478;-76
2021/10/04 09:10:41;;;;;;;3.72;2.92;;;;;;;20.50;25.88;101581.84;4987101;28;20462;-76
2021/10/04 09:13:14;;;;;;;5.88;3.10;;;;;;;20.56;24.59;101568.22;4991126;28;20058;-75
2021/10/04 09:15:43;;;;;;;7.40;3.40;;;;;;;20.68;25.77;101575.66;4993821;28;20089;-79
2021/10/04 09:18:26;;;;;;;9.43;3.20;;;;;;;20.65;24.18;101571.81;4989135;28;20081;-77
2021/10/04 09:21:09;;;;;;;6.60;2.90;;;;;;;20.88;24.66;101575.28;4991651;28;20133;-76
2021/10/04 09:23:48;;;;;;;4.93;2.80;;;;;;;20.82;24.03;101563.28;5003708;28;20108;-77
2021/10/04 09:26:29;;;;;;;10.25;3.55;;;;;;;20.82;23.91;101568.81;4992097;28;20050;-76
2021/10/04 09:29:07;;;;;;;6.78;2.50;;;;;;;21.19;24.09;101567.72;4990228;28;20051;-77
2021/10/04 09:31:40;;;;;;;3.30;2.35;;;;;;;21.51;22.90;101565.63;4984929;28;20104;-76
2021/10/04 09:34:17;;;;;;;2.25;1.90;;;;;;;21.65;22.77;101565.06;4989897;28;20054;-76
2021/10/04 09:36:52;;;;;;;3.50;2.80;;;;;;;21.68;22.67;101572.44;4992813;28;20066;-76
2021/10/04 09:39:33;;;;;;;6.93;2.30;;;;;;;21.85;22.81;101564.59;4993096;28;20125;-75
2021/10/04 09:42:10;;;;;;;4.05;2.28;;;;;;;22.10;22.68;101550.47;4985688;28;20054;-74
2021/10/04 09:44:42;;;;;;;7.18;3.00;;;;;;;22.11;22.32;101555.53;4991895;28;20558;-78
2021/10/04 09:47:20;;;;;;;4.80;2.10;;;;;;;22.24;22.63;101549.06;4988968;28;20137;-76
2021/10/04 09:50:05;;;;;;;4.05;2.63;;;;;;;22.05;22.39;101546.31;5006060;28;20109;-76
2021/10/04 09:52:44;;;;;;;6.38;2.47;;;;;;;22.10;22.66;101558.75;4989639;28;20108;-76
2021/10/04 09:55:14;;;;;;;4.13;2.33;;;;;;;21.84;23.62;101541.72;4985637;28;20082;-76
2021/10/04 09:57:41;;;;;;;3.22;2.28;;;;;;;21.49;23.86;101548.78;4994737;28;20125;-76
2021/10/04 10:00:09;;;;;;;3.88;2.40;;;;;;;21.49;23.52;101546.03;4992284;28;20050;-75
2021/10/04 10:02:36;;;;;;;12.35;3.30;;;;;;;21.30;24.42;101548.72;4990845;28;20139;-78
2021/10/04 10:05:05;;;;;;;9.38;3.88;;;;;;;21.21;24.49;101540.44;4986265;28;20058;-76
2021/10/04 10:07:32;;;;;;;10.27;3.58;;;;;;;20.89;24.66;101546.44;4989592;28;20088;-78
2021/10/04 10:10:00;;;;;;;7.18;3.88;;;;;;;20.59;24.58;101543.25;5006537;28;20089;-76
2021/10/04 10:12:27;;;;;;;5.68;3.10;;;;;;;20.47;24.96;101535.84;4991400;28;20134;-74
2021/10/04 10:14:54;;;;;;;9.55;4.07;;;;;;;20.30;25.16;101540.03;4991393;28;20050;-75
2021/10/04 10:17:26;;;;;;;5.45;3.17;;;;;;;20.08;25.49;101535.28;4992839;28;20141;-76
2021/10/04 10:19:56;;;;;;;8.07;3.45;;;;;;;19.76;25.72;101530.16;4990494;28;20086;-76
2021/10/04 10:22:32;;;;;;;6.60;4.07;;;;;;;19.81;26.04;101532.34;4990326;28;20518;-75
2021/10/04 10:25:00;;;;;;;9.35;4.57;;;;;;;19.67;26.07;101532.81;4980287;28;20128;-75
2021/10/04 10:27:43;;;;;;;9.88;3.92;;;;;;;19.47;26.90;101537.81;4990452;28;20109;-75
2021/10/04 10:30:21;;;;;;;7.70;3.28;;;;;;;19.31;26.27;101525.00;4991213;28;20407;-76
2021/10/04 10:32:48;;;;;;;8.65;3.35;;;;;;;19.14;26.86;101540.84;5006396;28;20464;-75
2021/10/04 10:35:15;;;;;;;8.85;3.78;;;;;;;19.06;26.91;101529.31;4993616;28;20502;-76
2021/10/04 10:37:51;;;;;;;9.05;3.50;;;;;;;19.13;26.72;101527.56;4992261;28;20050;-75
2021/10/04 10:40:21;;;;;;;4.35;2.63;;;;;;;18.86;26.67;101528.78;4991150;28;20081;-76
2021/10/04 10:43:09;;;;;;;7.60;2.95;;;;;;;18.69;26.79;101525.38;4993812;28;20462;-76
2021/10/04 10:45:46;;;;;;;7.93;4.05;;;;;;;18.58;26.90;101515.88;4990966;28;20081;-75
2021/10/04 10:48:15;;;;;;;8.98;4.22;;;;;;;18.36;26.95;101526.75;4988649;28;20081;-76
2021/10/04 10:50:47;;;;;;;10.32;4.63;;;;;;;18.34;27.76;101534.66;4989552;28;20081;-76
2021/10/04 10:53:24;;;;;;;14.45;5.20;;;;;;;18.32;27.72;101531.56;5005232;28;20486;-75
2021/10/04 10:56:00;;;;;;;20.80;6.28;;;;;;;18.32;27.54;101520.59;4987897;28;20483;-75
2021/10/04 10:58:31;;;;;;;15.93;4.95;;;;;;;18.25;27.79;101520.78;4986673;28;20046;-74
2021/10/04 11:01:04;;;;;;;10.95;5.32;;;;;;;18.19;28.10;101517.06;4990204;28;20046;-75
2021/10/04 11:03:31;;;;;;;9.83;4.53;;;;;;;18.37;28.09;101517.28;4981929;28;20050;-74
2021/10/04 11:06:04;;;;;;;9.93;4.25;;;;;;;18.44;28.03;101511.56;4990605;28;20465;-75
2021/10/04 11:08:42;;;;;;;9.18;4.50;;;;;;;18.35;27.25;101514.22;4986735;28;20046;-75
2021/10/04 11:11:12;;;;;;;8.02;4.20;;;;;;;18.59;27.67;101498.97;4991159;28;20564;-76
2021/10/04 11:13:41;;;;;;;17.38;6.55;;;;;;;18.76;27.97;101504.34;4990085;28;20062;-76
2021/10/04 11:16:08;;;;;;;14.10;6.35;;;;;;;19.20;27.34;101505.28;4990472;28;20812;-75
2021/10/04 11:18:44;;;;;;;16.92;5.43;;;;;;;19.72;26.14;101501.97;4990663;28;20372;-76
2021/10/04 11:21:14;;;;;;;11.38;4.45;;;;;;;19.86;26.56;101501.44;4990400;28;20082;-75
2021/10/04 11:23:44;;;;;;;9.07;4.03;;;;;;;19.99;26.35;101507.66;4989114;28;20081;-75
2021/10/04 11:26:19;;;;;;;7.70;4.35;;;;;;;20.25;25.70;101502.00;4984846;28;20074;-76
2021/10/04 11:28:58;;;;;;;7.72;4.18;;;;;;;20.79;25.69;101506.25;4984697;28;20086;-75